| time (UTC) | temp F | wind direction | speed MPH | gust MPH | rain 1hr in | rain 24hr in | rain mn in | humidity % | barometer mb |
| 20260906105548 | 71 | 231 | 0.0 | 0.0 | 0.00 | 0.05 | 0.05 | 100 | 1013.5 |
| 20260906103345 | 71 | 231 | 0.0 | 0.0 | 0.00 | 0.05 | 0.05 | 100 | 1013.2 |
| 20260906100043 | 72 | 231 | 0.0 | 0.0 | 0.00 | 0.05 | 0.05 | 100 | 1013.2 |
| 20260906094939 | 72 | 77 | 2.0 | 1.0 | 0.04 | 0.05 | 0.05 | 100 | 1013.2 |
| 20260906093837 | 73 | 1 | 0.0 | 2.0 | 0.05 | 0.05 | 0.05 | 100 | 1013.2 |
| 20260906092734 | 73 | 111 | 0.0 | 0.0 | 0.05 | 0.05 | 0.05 | 100 | 1012.8 |
| 20260906091631 | 73 | 94 | 1.0 | 5.0 | 0.05 | 0.05 | 0.05 | 100 | 1012.5 |
| 20260906090529 | 73 | 177 | 2.0 | 0.0 | 0.05 | 0.05 | 0.05 | 100 | 1012.8 |
| 20260906085426 | 73 | 280 | 0.0 | 0.0 | 0.03 | 0.03 | 0.03 | 100 | 1013.2 |
| 20260906083224 | 73 | 280 | 0.0 | 0.0 | 0.00 | 0.00 | 0.00 | 100 | 1013.2 |
| 20260906082120 | 73 | 234 | 1.0 | 1.0 | 0.00 | 0.00 | 0.00 | 100 | 1013.8 |
| 20260906075917 | 73 | 62 | 0.0 | 0.0 | 0.00 | 0.00 | 0.00 | 100 | 1013.8 |
| 20260906074815 | 73 | 62 | 0.0 | 3.0 | 0.00 | 0.00 | 0.00 | 100 | 1013.8 |
| 20260906073712 | 73 | 357 | 3.0 | 2.0 | 0.00 | 0.00 | 0.00 | 100 | 1014.2 |
| 20260906072610 | 73 | 335 | 1.0 | 4.0 | 0.00 | 0.00 | 0.00 | 100 | 1013.5 |
| 20260906071507 | 73 | 315 | 1.0 | 2.0 | 0.00 | 0.00 | 0.00 | 100 | 1013.2 |
| 20260906070405 | 73 | 247 | 0.0 | 2.0 | 0.00 | 0.00 | 0.00 | 100 | 1012.8 |
| 20260906065305 | 72 | 215 | 1.0 | 0.0 | 0.00 | 0.00 | 0.00 | 100 | 1012.8 |
| 20260906064159 | 72 | 163 | 2.0 | 3.0 | 0.00 | 0.00 | 0.00 | 100 | 1012.8 |
| 20260906055756 | 72 | 265 | 0.0 | 0.0 | 0.00 | 0.00 | 0.00 | 100 | 1013.2 |
| 20260906054654 | 72 | 265 | 0.0 | 0.0 | 0.00 | 0.00 | 0.00 | 100 | 1012.8 |
| 20260906053551 | 72 | 265 | 0.0 | 0.0 | 0.00 | 0.00 | 0.00 | 100 | 1013.2 |
| 20260906052449 | 72 | 265 | 0.0 | 0.0 | 0.00 | 0.00 | 0.00 | 100 | 1013.5 |
| 20260906042946 | 72 | 186 | 0.0 | 0.0 | 0.00 | 0.00 | 0.00 | 100 | 1013.8 |
| 20260906041843 | 72 | 261 | 0.0 | 0.0 | 0.00 | 0.00 | 0.00 | 100 | 1013.8 |
| 20260906034541 | 72 | 88 | 0.0 | 0.0 | 0.00 | 0.00 | 0.00 | 100 | 1013.8 |
| 20260906033438 | 73 | 88 | 0.0 | 0.0 | 0.00 | 0.00 | 0.00 | 100 | 1013.5 |
| 20260906030136 | 73 | 88 | 0.0 | 0.0 | 0.00 | 0.00 | 0.00 | 100 | 1013.8 |
| 20260906021733 | 73 | 88 | 0.0 | 0.0 | 0.00 | 0.00 | 0.00 | 100 | 1013.5 |
| 20260906015531 | 73 | 88 | 0.0 | 0.0 | 0.00 | 0.00 | 0.00 | 100 | 1013.2 |
| 20260906013329 | 74 | 88 | 0.0 | 0.0 | 0.00 | 0.00 | 0.00 | 100 | 1013.2 |
| 20260906012226 | 74 | 88 | 0.0 | 0.0 | 0.00 | 0.00 | 0.00 | 100 | 1012.8 |
| 20260906011123 | 75 | 319 | 0.0 | 0.0 | 0.00 | 0.00 | 0.00 | 99 | 1012.8 |
| 20260906010021 | 75 | 319 | 0.0 | 0.0 | 0.00 | 0.00 | 0.00 | 98 | 1012.8 |
| 20260906004918 | 76 | 319 | 0.0 | 0.0 | 0.00 | 0.00 | 0.00 | 98 | 1012.8 |
| 20260906003816 | 76 | 319 | 0.0 | 0.0 | 0.00 | 0.00 | 0.00 | 95 | 1012.8 |
| 20260906002713 | 77 | 319 | 0.0 | 0.0 | 0.00 | 0.00 | 0.00 | 94 | 1012.8 |
| 20260906001611 | 77 | 319 | 0.0 | 0.0 | 0.00 | 0.00 | 0.00 | 92 | 1013.2 |
| 20260906000509 | 78 | 319 | 0.0 | 0.0 | 0.00 | 0.00 | 0.00 | 92 | 1013.2 |
| 20260905235406 | 79 | 319 | 0.0 | 0.0 | 0.00 | 0.00 | 0.00 | 91 | 1013.2 |
| 20260905234304 | 79 | 319 | 0.0 | 0.0 | 0.00 | 0.00 | 0.00 | 88 | 1013.2 |
| 20260905233201 | 80 | 319 | 0.0 | 0.0 | 0.00 | 0.00 | 0.00 | 85 | 1013.2 |
| 20260905232059 | 80 | 319 | 0.0 | 0.0 | 0.00 | 0.00 | 0.00 | 83 | 1013.2 |
| 20260905230956 | 80 | 319 | 0.0 | 0.0 | 0.00 | 0.00 | 0.00 | 82 | 1012.8 |
| 20260905225853 | 80 | 319 | 0.0 | 0.0 | 0.00 | 0.00 | 0.00 | 83 | 1012.8 |
| 20260905224751 | 80 | 319 | 0.0 | 0.0 | 0.00 | 0.00 | 0.00 | 87 | 1012.8 |
| 20260905223648 | 80 | 319 | 0.0 | 0.0 | 0.00 | 0.00 | 0.00 | 85 | 1012.8 |
| 20260905220346 | 80 | 18 | 0.0 | 0.0 | 0.00 | 0.00 | 0.00 | 84 | 1013.2 |
| 20260905215244 | 80 | 18 | 0.0 | 0.0 | 0.00 | 0.00 | 0.00 | 79 | 1013.2 |
| 20260905214142 | 81 | 319 | 0.0 | 0.0 | 0.00 | 0.00 | 0.00 | 77 | 1013.5 |
| 20260905213039 | 81 | 319 | 0.0 | 1.0 | 0.00 | 0.00 | 0.00 | 77 | 1013.5 |
| 20260905211937 | 82 | 302 | 0.0 | 0.0 | 0.00 | 0.00 | 0.00 | 74 | 1013.8 |
| 20260905210834 | 82 | 302 | 0.0 | 1.0 | 0.00 | 0.00 | 0.00 | 70 | 1013.8 |
| 20260905205732 | 83 | 163 | 0.0 | 0.0 | 0.00 | 0.00 | 0.00 | 67 | 1013.8 |
| 20260905204629 | 82 | 163 | 0.0 | 2.0 | 0.00 | 0.00 | 0.00 | 67 | 1013.8 |
| 20260905203527 | 81 | 315 | 3.0 | 7.0 | 0.00 | 0.00 | 0.00 | 66 | 1013.8 |
| 20260905202425 | 81 | 337 | 2.0 | 0.0 | 0.00 | 0.00 | 0.00 | 67 | 1014.2 |
| 20260905201322 | 82 | 39 | 0.0 | 3.0 | 0.00 | 0.00 | 0.00 | 68 | 1014.5 |
| 20260905200220 | 82 | 7 | 0.0 | 4.0 | 0.00 | 0.00 | 0.00 | 67 | 1015.2 |
| 20260905195118 | 83 | 307 | 1.0 | 6.0 | 0.00 | 0.00 | 0.00 | 67 | 1014.9 |
| 20260905194015 | 84 | 39 | 0.0 | 4.0 | 0.00 | 0.00 | 0.00 | 68 | 1014.5 |
| 20260905192912 | 85 | 312 | 2.0 | 8.0 | 0.00 | 0.00 | 0.00 | 68 | 1014.2 |
| 20260905191810 | 87 | 291 | 5.0 | 13.0 | 0.00 | 0.00 | 0.00 | 66 | 1014.5 |
| 20260905190708 | 94 | 296 | 4.0 | 4.0 | 0.00 | 0.00 | 0.00 | 58 | 1014.2 |
| 20260905185606 | 96 | 8 | 1.0 | 3.0 | 0.00 | 0.00 | 0.00 | 53 | 1014.2 |
| 20260905184503 | 96 | 341 | 1.0 | 8.0 | 0.00 | 0.00 | 0.00 | 51 | 1014.2 |
| 20260905183401 | 97 | 304 | 1.0 | 6.0 | 0.00 | 0.00 | 0.00 | 48 | 1014.2 |
| 20260905182258 | 96 | 35 | 0.0 | 5.0 | 0.00 | 0.00 | 0.00 | 50 | 1013.8 |
| 20260905181156 | 95 | 267 | 3.0 | 4.0 | 0.00 | 0.00 | 0.00 | 52 | 1014.2 |
| 20260905180054 | 95 | 214 | 2.0 | 5.0 | 0.00 | 0.00 | 0.00 | 52 | 1014.2 |
| 20260905174951 | 94 | 165 | 3.0 | 6.0 | 0.00 | 0.00 | 0.00 | 54 | 1014.5 |
| 20260905173849 | 94 | 86 | 0.0 | 4.0 | 0.00 | 0.00 | 0.00 | 54 | 1014.9 |
| 20260905172747 | 92 | 42 | 1.0 | 2.0 | 0.00 | 0.00 | 0.00 | 60 | 1014.5 |
| 20260905171645 | 91 | 49 | 3.0 | 4.0 | 0.00 | 0.00 | 0.00 | 56 | 1014.9 |
| 20260905170542 | 92 | 268 | 2.0 | 4.0 | 0.00 | 0.00 | 0.00 | 55 | 1014.9 |
| 20260905165440 | 93 | 303 | 0.0 | 3.0 | 0.00 | 0.00 | 0.00 | 56 | 1014.9 |
| 20260905164337 | 93 | 213 | 0.0 | 4.0 | 0.00 | 0.00 | 0.00 | 53 | 1015.2 |
| 20260905163235 | 93 | 310 | 0.0 | 3.0 | 0.00 | 0.00 | 0.00 | 53 | 1015.2 |
| 20260905162133 | 92 | 0 | 1.0 | 4.0 | 0.00 | 0.00 | 0.00 | 58 | 1015.2 |
| 20260905161030 | 91 | 293 | 0.0 | 4.0 | 0.00 | 0.00 | 0.00 | 62 | 1015.2 |
| 20260905155928 | 91 | 325 | 1.0 | 4.0 | 0.00 | 0.00 | 0.00 | 63 | 1015.5 |
| 20260905154825 | 92 | 340 | 1.0 | 5.0 | 0.00 | 0.00 | 0.00 | 63 | 1015.5 |
| 20260905153723 | 92 | 18 | 1.0 | 3.0 | 0.00 | 0.00 | 0.00 | 64 | 1015.5 |
| 20260905152620 | 91 | 328 | 1.0 | 4.0 | 0.00 | 0.00 | 0.00 | 67 | 1015.5 |
| 20260905151518 | 91 | 327 | 0.0 | 3.0 | 0.00 | 0.00 | 0.00 | 67 | 1015.5 |
| 20260905150416 | 90 | 151 | 0.0 | 2.0 | 0.00 | 0.00 | 0.00 | 71 | 1015.5 |
| 20260905145313 | 89 | 49 | 0.0 | 3.0 | 0.00 | 0.00 | 0.00 | 73 | 1015.9 |
| 20260905144211 | 88 | 143 | 2.0 | 3.0 | 0.00 | 0.00 | 0.00 | 76 | 1015.9 |
| 20260905143109 | 87 | 28 | 0.0 | 0.0 | 0.00 | 0.00 | 0.00 | 78 | 1015.9 |
| 20260905142006 | 86 | 166 | 0.0 | 2.0 | 0.00 | 0.00 | 0.00 | 80 | 1015.9 |
| 20260905140903 | 85 | 53 | 0.0 | 3.0 | 0.00 | 0.00 | 0.00 | 84 | 1015.9 |
| 20260905135801 | 84 | 143 | 2.0 | 3.0 | 0.00 | 0.00 | 0.00 | 87 | 1015.9 |
| 20260905134658 | 83 | 153 | 2.0 | 2.0 | 0.00 | 0.00 | 0.00 | 94 | 1015.9 |
| 20260905133556 | 81 | 337 | 0.0 | 0.0 | 0.00 | 0.00 | 0.00 | 100 | 1016.2 |
| 20260905132453 | 80 | 337 | 0.0 | 0.0 | 0.00 | 0.00 | 0.00 | 100 | 1016.2 |
| 20260905131351 | 78 | 337 | 0.0 | 0.0 | 0.00 | 0.00 | 0.00 | 100 | 1016.2 |
| 20260905130249 | 77 | 337 | 0.0 | 0.0 | 0.00 | 0.00 | 0.00 | 100 | 1016.2 |
| 20260905125146 | 76 | 337 | 0.0 | 0.0 | 0.00 | 0.00 | 0.00 | 100 | 1016.2 |
| 20260905124044 | 75 | 337 | 0.0 | 0.0 | 0.00 | 0.00 | 0.00 | 100 | 1016.2 |
| 20260905122941 | 74 | 337 | 0.0 | 0.0 | 0.00 | 0.00 | 0.00 | 100 | 1016.2 |
| 20260905120739 | 73 | 337 | 0.0 | 0.0 | 0.00 | 0.00 | 0.00 | 100 | 1015.9 |
| 20260905115637 | 72 | 337 | 0.0 | 0.0 | 0.00 | 0.00 | 0.00 | 100 | 1015.9 |
| 20260905113434 | 72 | 337 | 0.0 | 0.0 | 0.00 | 0.00 | 0.00 | 100 | 1015.5 |